createdAt,value
2022-08-05T00:00:33.603Z,30.73
2022-08-05T00:01:36.304Z,30.73
2022-08-05T00:02:33.950Z,30.73
2022-08-05T00:03:33.110Z,30.73
2022-08-05T00:04:33.270Z,30.73
2022-08-05T00:06:06.609Z,30.69
2022-08-05T00:06:36.082Z,30.69
2022-08-05T00:07:59.904Z,30.69
2022-08-05T00:08:36.104Z,30.66
2022-08-05T00:09:34.182Z,30.68
2022-08-05T00:10:34.342Z,30.65
2022-08-05T00:11:48.355Z,30.62
2022-08-05T00:12:35.713Z,30.62
2022-08-05T00:13:39.112Z,30.61
2022-08-05T00:14:35.063Z,30.59
2022-08-05T00:15:55.851Z,30.56
2022-08-05T00:16:52.369Z,30.56
2022-08-05T00:17:36.576Z,30.56
2022-08-05T00:18:35.766Z,30.58
2022-08-05T00:20:01.747Z,30.54
2022-08-05T00:20:37.118Z,30.56
2022-08-05T00:21:36.306Z,30.46
2022-08-05T00:22:36.480Z,30.47
2022-08-05T00:23:45.881Z,30.47
2022-08-05T00:24:38.338Z,30.46
2022-08-05T00:25:45.948Z,30.46
2022-08-05T00:26:38.182Z,30.44
2022-08-05T00:27:37.564Z,30.46
2022-08-05T00:28:38.509Z,30.41
2022-08-05T00:29:38.411Z,30.40
2022-08-05T00:30:37.860Z,30.39
2022-08-05T00:31:41.351Z,30.36
2022-08-05T00:32:39.207Z,30.39
2022-08-05T00:34:54.673Z,30.35
2022-08-05T00:34:55.585Z,30.31
2022-08-05T00:36:14.988Z,30.29
2022-08-05T00:37:12.942Z,30.28
2022-08-05T00:37:53.235Z,30.28
2022-08-05T00:38:40.249Z,30.27
2022-08-05T00:39:41.730Z,30.27
2022-08-05T00:40:40.621Z,30.25
2022-08-05T00:41:52.097Z,30.24
2022-08-05T00:42:40.973Z,30.24
2022-08-05T00:43:47.121Z,30.22
2022-08-05T00:44:41.329Z,30.21
2022-08-05T00:45:43.887Z,30.17
2022-08-05T00:46:43.558Z,30.19
2022-08-05T00:47:56.381Z,30.17
2022-08-05T00:48:50.837Z,30.16
2022-08-05T00:49:49.359Z,30.14
2022-08-05T00:50:44.229Z,30.16
2022-08-05T00:51:51.080Z,30.17
2022-08-05T00:52:45.463Z,30.14
2022-08-05T00:54:00.396Z,30.14
2022-08-05T00:54:43.359Z,30.14
2022-08-05T00:55:43.801Z,30.12
2022-08-05T00:56:51.514Z,30.14
2022-08-05T00:57:57.853Z,30.14
2022-08-05T00:58:44.966Z,30.13
2022-08-05T00:59:44.548Z,30.14
2022-08-05T01:00:43.222Z,30.13
2022-08-05T01:01:48.960Z,30.13
2022-08-05T01:02:44.537Z,30.14
2022-08-05T01:03:43.750Z,30.12
2022-08-05T01:04:44.915Z,30.10
2022-08-05T01:05:45.085Z,30.13
2022-08-05T01:06:48.889Z,30.12
2022-08-05T01:08:29.899Z,30.10
2022-08-05T01:08:47.259Z,30.12
2022-08-05T01:09:44.810Z,30.10
2022-08-05T01:10:51.610Z,30.09
2022-08-05T01:11:46.137Z,30.10
2022-08-05T01:13:05.026Z,30.10
2022-08-05T01:13:58.585Z,30.09
2022-08-05T01:14:46.661Z,30.09
2022-08-05T01:15:47.861Z,30.07
2022-08-05T01:16:46.009Z,30.07
2022-08-05T01:17:46.201Z,30.06
2022-08-05T01:18:48.180Z,30.06
2022-08-05T01:20:01.137Z,30.06
2022-08-05T01:20:47.750Z,30.06
2022-08-05T01:21:50.645Z,30.05
2022-08-05T01:22:47.278Z,30.03
2022-08-05T01:23:53.027Z,30.05
2022-08-05T01:24:48.419Z,30.03
2022-08-05T01:25:53.360Z,30.03
2022-08-05T01:26:48.746Z,30.02
2022-08-05T01:27:55.796Z,30.03
2022-08-05T01:28:49.126Z,30.02
2022-08-05T01:29:48.266Z,30.02
2022-08-05T01:30:53.546Z,30.02
2022-08-05T01:31:49.633Z,29.99
2022-08-05T01:32:48.797Z,29.99
2022-08-05T01:33:53.475Z,29.99
2022-08-05T01:34:49.143Z,29.99
2022-08-05T01:35:51.294Z,29.99
2022-08-05T01:36:49.453Z,29.97
2022-08-05T01:37:49.606Z,29.98
2022-08-05T01:38:50.006Z,29.95
2022-08-05T01:39:50.020Z,29.97
2022-08-05T01:40:50.173Z,29.95
2022-08-05T01:41:50.350Z,29.94
2022-08-05T01:42:50.597Z,29.95
2022-08-05T01:43:50.722Z,29.94
2022-08-05T01:44:54.193Z,29.94
2022-08-05T01:45:55.243Z,29.94
2022-08-05T01:46:52.221Z,29.94
2022-08-05T01:47:54.431Z,29.94
2022-08-05T01:48:51.606Z,29.92
2022-08-05T01:50:02.020Z,29.90
2022-08-05T01:50:52.956Z,29.91
2022-08-05T01:51:52.144Z,29.90
2022-08-05T01:52:52.304Z,29.90
2022-08-05T01:53:57.187Z,29.88
2022-08-05T01:54:53.636Z,29.87
2022-08-05T01:55:52.817Z,29.85
2022-08-05T01:58:10.897Z,29.87
2022-08-05T01:58:13.192Z,29.85
2022-08-05T01:58:54.387Z,29.84
2022-08-05T01:59:53.528Z,29.82
2022-08-05T02:00:53.717Z,29.82
2022-08-05T02:01:54.815Z,29.79
2022-08-05T02:02:55.168Z,29.78
2022-08-05T02:03:54.232Z,29.84
2022-08-05T02:04:54.433Z,29.78
2022-08-05T02:05:57.792Z,29.78
2022-08-05T02:06:55.771Z,29.79
2022-08-05T02:08:00.398Z,29.78
2022-08-05T02:08:58.992Z,29.75
2022-08-05T02:09:55.318Z,29.76
2022-08-05T02:10:55.483Z,29.75
2022-08-05T02:11:55.657Z,29.74
2022-08-05T02:12:55.815Z,29.74
2022-08-05T02:13:55.984Z,29.75
2022-08-05T02:14:56.154Z,29.72
2022-08-05T02:15:56.322Z,29.72
2022-08-05T02:16:56.486Z,29.69
2022-08-05T02:18:27.964Z,29.68
2022-08-05T02:18:57.812Z,29.68
2022-08-05T02:19:57.006Z,29.69
2022-08-05T02:20:58.935Z,29.68
2022-08-05T02:21:57.362Z,29.67
2022-08-05T02:22:57.533Z,29.68
2022-08-05T02:23:57.699Z,29.67
2022-08-05T02:24:57.911Z,29.67
2022-08-05T02:25:58.059Z,29.67
2022-08-05T02:26:58.265Z,29.64
2022-08-05T02:28:00.374Z,29.60
2022-08-05T02:28:58.599Z,29.62
2022-08-05T02:30:00.738Z,29.65
2022-08-05T02:30:58.903Z,29.65
2022-08-05T02:31:59.062Z,29.64
2022-08-05T02:33:00.254Z,29.62
2022-08-05T02:33:59.439Z,29.64
2022-08-05T02:34:59.622Z,29.59
2022-08-05T02:36:00.928Z,29.60
2022-08-05T02:36:59.967Z,29.60
2022-08-05T02:38:00.376Z,29.59
2022-08-05T02:39:00.446Z,29.59
2022-08-05T02:40:00.474Z,29.59
2022-08-05T02:41:00.640Z,29.57
2022-08-05T02:42:01.826Z,29.57
2022-08-05T02:43:01.000Z,29.59
2022-08-05T02:44:02.786Z,29.56
2022-08-05T02:45:02.350Z,29.57
2022-08-05T02:46:01.556Z,29.53
2022-08-05T02:47:01.733Z,29.56
2022-08-05T02:48:12.060Z,29.52
2022-08-05T02:49:03.080Z,29.54
2022-08-05T02:50:02.248Z,29.53
2022-08-05T02:51:02.447Z,29.56
2022-08-05T02:52:04.326Z,29.52
2022-08-05T02:53:02.758Z,29.52
2022-08-05T02:54:04.073Z,29.50
2022-08-05T02:55:05.082Z,29.52
2022-08-05T02:56:03.248Z,29.49
2022-08-05T02:57:03.401Z,29.47
2022-08-05T02:58:09.385Z,29.49
2022-08-05T02:59:04.773Z,29.46
2022-08-05T03:00:03.975Z,29.46
2022-08-05T03:01:04.194Z,29.46
2022-08-05T03:02:04.278Z,29.46
2022-08-05T03:03:10.147Z,29.45
2022-08-05T03:04:12.108Z,29.47
2022-08-05T03:05:05.807Z,29.45
2022-08-05T03:06:56.560Z,29.45
2022-08-05T03:07:06.167Z,29.42
2022-08-05T03:08:08.666Z,29.42
2022-08-05T03:09:05.516Z,29.40
2022-08-05T03:10:05.683Z,29.40
2022-08-05T03:11:55.999Z,29.41
2022-08-05T03:12:07.820Z,29.40
2022-08-05T03:13:51.533Z,29.38
2022-08-05T03:14:46.080Z,29.37
2022-08-05T03:15:42.606Z,29.35
2022-08-05T03:16:42.796Z,29.37
2022-08-05T03:17:44.859Z,29.35
2022-08-05T03:18:43.137Z,29.35
2022-08-05T03:19:45.818Z,29.34
2022-08-05T03:20:48.672Z,29.35
2022-08-05T03:21:48.673Z,29.34
2022-08-05T03:22:49.765Z,29.32
2022-08-05T03:23:45.612Z,29.34
2022-08-05T03:24:44.166Z,29.31
2022-08-05T03:26:03.658Z,29.35
2022-08-05T03:26:45.695Z,29.31
2022-08-05T03:27:58.959Z,29.31
2022-08-05T03:28:45.880Z,29.27
2022-08-05T03:30:08.152Z,29.25
2022-08-05T03:30:46.201Z,29.23
2022-08-05T03:31:56.772Z,29.25
2022-08-05T03:32:46.844Z,29.25
2022-08-05T03:33:52.724Z,29.25
2022-08-05T03:34:50.707Z,29.25
2022-08-05T03:35:46.080Z,29.22
2022-08-05T03:36:46.279Z,29.22
2022-08-05T03:37:46.958Z,29.23
2022-08-05T03:38:53.378Z,29.23
2022-08-05T03:39:58.526Z,29.22
2022-08-05T03:40:48.746Z,29.25
2022-08-05T03:41:47.143Z,29.22
2022-08-05T03:42:51.762Z,29.22
2022-08-05T03:44:09.068Z,29.20
2022-08-05T03:44:48.663Z,29.23
2022-08-05T03:45:57.622Z,29.23
2022-08-05T03:46:49.027Z,29.22
2022-08-05T03:47:49.337Z,29.22
2022-08-05T03:48:48.376Z,29.20
2022-08-05T03:49:51.048Z,29.22
2022-08-05T03:50:48.735Z,29.23
2022-08-05T03:52:49.071Z,29.20
2022-08-05T03:55:50.587Z,29.20
2022-08-05T03:55:51.363Z,29.20
2022-08-05T03:55:51.626Z,29.20
2022-08-05T03:56:11.574Z,29.22
2022-08-05T03:56:50.765Z,29.22
2022-08-05T03:57:50.212Z,29.22
2022-08-05T03:58:51.154Z,29.19
2022-08-05T03:59:54.966Z,29.20
2022-08-05T04:00:51.718Z,29.22
2022-08-05T04:01:50.652Z,29.22
2022-08-05T04:02:52.285Z,29.20
2022-08-05T04:04:05.367Z,29.20
2022-08-05T04:04:52.181Z,29.22
2022-08-05T04:05:51.331Z,29.18
2022-08-05T04:06:51.829Z,29.19
2022-08-05T04:07:58.678Z,29.22
2022-08-05T04:08:52.822Z,29.20
2022-08-05T04:09:53.809Z,29.19
2022-08-05T04:10:52.200Z,29.20
2022-08-05T04:11:52.642Z,29.20
2022-08-05T04:12:52.554Z,29.20
2022-08-05T04:13:53.497Z,29.22
2022-08-05T04:14:52.896Z,29.20
2022-08-05T04:16:04.582Z,29.22
2022-08-05T04:16:54.256Z,29.25
2022-08-05T04:17:56.263Z,29.20
2022-08-05T04:18:53.967Z,29.25
2022-08-05T04:19:54.465Z,29.23
2022-08-05T04:20:54.917Z,29.25
2022-08-05T04:22:08.357Z,29.27
2022-08-05T04:22:55.246Z,29.23
2022-08-05T04:24:05.082Z,29.28
2022-08-05T04:24:55.618Z,29.28
2022-08-05T04:25:57.425Z,29.28
2022-08-05T04:26:55.938Z,29.32
2022-08-05T04:27:57.212Z,29.30
2022-08-05T04:28:55.311Z,29.30
2022-08-05T04:29:55.491Z,29.34
2022-08-05T04:30:55.665Z,29.32
2022-08-05T04:31:56.726Z,29.34
2022-08-05T04:32:56.022Z,29.35
2022-08-05T04:34:19.714Z,29.34
2022-08-05T04:34:57.596Z,29.37
2022-08-05T04:36:16.570Z,29.37
2022-08-05T04:36:57.751Z,29.35
2022-08-05T04:38:02.230Z,29.40
2022-08-05T04:38:58.094Z,29.40
2022-08-05T04:39:57.223Z,29.40
2022-08-05T04:40:57.379Z,29.41
2022-08-05T04:41:57.546Z,29.41
2022-08-05T04:42:57.705Z,29.45
2022-08-05T04:43:57.895Z,29.45
2022-08-05T04:44:58.027Z,29.45
2022-08-05T04:45:58.218Z,29.46
2022-08-05T04:46:58.659Z,29.46
2022-08-05T04:47:58.582Z,29.46
2022-08-05T04:48:58.924Z,29.47
2022-08-05T04:50:02.951Z,29.46
2022-08-05T04:51:02.654Z,29.49
2022-08-05T04:52:00.378Z,29.49
2022-08-05T04:52:59.459Z,29.50
2022-08-05T04:54:01.280Z,29.50
2022-08-05T04:54:59.790Z,29.52
2022-08-05T04:56:14.429Z,29.52
2022-08-05T04:57:01.192Z,29.49
2022-08-05T04:58:00.352Z,29.53
2022-08-05T04:59:00.540Z,29.53
2022-08-05T05:00:01.731Z,29.54
2022-08-05T05:01:01.030Z,29.54
2022-08-05T05:02:07.817Z,29.54
2022-08-05T05:03:03.974Z,29.57
2022-08-05T05:04:01.422Z,29.59
2022-08-05T05:05:03.066Z,29.59
2022-08-05T05:06:38.918Z,29.60
2022-08-05T05:07:02.945Z,29.62
2022-08-05T05:08:02.495Z,29.65
2022-08-05T05:09:02.268Z,29.64
2022-08-05T05:10:02.426Z,29.62
2022-08-05T05:11:02.608Z,29.65
2022-08-05T05:12:03.031Z,29.65
2022-08-05T05:13:04.010Z,29.65
2022-08-05T05:14:03.137Z,29.65
2022-08-05T05:15:03.658Z,29.67
2022-08-05T05:16:06.139Z,29.65
2022-08-05T05:17:03.788Z,29.65
2022-08-05T05:18:03.829Z,29.64
2022-08-05T05:19:18.098Z,29.68
2022-08-05T05:20:05.192Z,29.67
2022-08-05T05:21:04.381Z,29.65
2022-08-05T05:22:24.032Z,29.67
2022-08-05T05:23:08.447Z,29.68
2022-08-05T05:24:09.175Z,29.67
2022-08-05T05:25:16.949Z,29.67
2022-08-05T05:26:06.143Z,29.68
2022-08-05T05:27:05.322Z,29.68
2022-08-05T05:28:05.494Z,29.69
2022-08-05T05:29:14.401Z,29.67
2022-08-05T05:30:06.813Z,29.68
2022-08-05T05:31:08.919Z,29.68
2022-08-05T05:32:06.163Z,29.67
2022-08-05T05:33:14.123Z,29.71
2022-08-05T05:34:07.534Z,29.68
2022-08-05T05:35:06.706Z,29.68
2022-08-05T05:36:06.861Z,29.68
2022-08-05T05:37:07.079Z,29.69
2022-08-05T05:38:09.211Z,29.68
2022-08-05T05:39:10.909Z,29.67
2022-08-05T05:40:07.639Z,29.71
2022-08-05T05:41:07.802Z,29.69
2022-08-05T05:42:07.938Z,29.68
2022-08-05T05:43:08.584Z,29.68
2022-08-05T05:44:36.870Z,29.65
2022-08-05T05:45:09.431Z,29.67
2022-08-05T05:46:15.829Z,29.67
2022-08-05T05:47:21.864Z,29.65
2022-08-05T05:48:10.010Z,29.64
2022-08-05T05:49:22.921Z,29.65
2022-08-05T05:50:10.271Z,29.64
2022-08-05T05:51:15.827Z,29.62
2022-08-05T05:52:13.315Z,29.62
2022-08-05T05:53:21.516Z,29.60
2022-08-05T05:54:11.650Z,29.60
2022-08-05T05:55:13.349Z,29.62
2022-08-05T05:56:10.373Z,29.62
2022-08-05T05:57:13.851Z,29.64
2022-08-05T05:58:11.743Z,29.60
2022-08-05T05:59:10.894Z,29.64
2022-08-05T06:00:11.092Z,29.62
2022-08-05T06:01:12.647Z,29.65
2022-08-05T06:02:11.416Z,29.67
2022-08-05T06:03:39.899Z,29.62
2022-08-05T06:04:13.121Z,29.68
2022-08-05T06:05:16.353Z,29.62
2022-08-05T06:06:13.158Z,29.65
2022-08-05T06:07:12.288Z,29.68
2022-08-05T06:08:12.458Z,29.65
2022-08-05T06:09:17.513Z,29.68
2022-08-05T06:10:13.808Z,29.62
2022-08-05T06:11:13.440Z,29.64
2022-08-05T06:12:13.184Z,29.67
2022-08-05T06:13:13.390Z,29.65
2022-08-05T06:14:13.530Z,29.67
2022-08-05T06:15:23.659Z,29.67
2022-08-05T06:16:30.124Z,29.68
2022-08-05T06:17:22.062Z,29.68
2022-08-05T06:18:15.242Z,29.67
2022-08-05T06:19:14.442Z,29.68
2022-08-05T06:20:21.539Z,29.69
2022-08-05T06:21:18.596Z,29.72
2022-08-05T06:22:14.955Z,29.72
2022-08-05T06:23:15.142Z,29.71
2022-08-05T06:24:15.294Z,29.72
2022-08-05T06:25:25.094Z,29.74
2022-08-05T06:26:21.394Z,29.71
2022-08-05T06:28:08.973Z,29.72
2022-08-05T06:28:21.289Z,29.74
2022-08-05T06:29:25.221Z,29.72
2022-08-05T06:30:20.117Z,29.74
2022-08-05T06:31:18.054Z,29.75
2022-08-05T06:32:25.111Z,29.72
2022-08-05T06:33:19.392Z,29.76
2022-08-05T06:34:17.036Z,29.76
2022-08-05T06:36:03.048Z,29.78
2022-08-05T06:36:18.438Z,29.76
2022-08-05T06:37:18.610Z,29.78
2022-08-05T06:38:35.934Z,29.76
2022-08-05T06:39:19.037Z,29.78
2022-08-05T06:40:21.429Z,29.78
2022-08-05T06:41:19.341Z,29.82
2022-08-05T06:42:18.543Z,29.78
2022-08-05T06:43:51.450Z,29.84
2022-08-05T06:44:19.822Z,29.79
2022-08-05T06:45:21.360Z,29.82
2022-08-05T06:46:20.130Z,29.82
2022-08-05T06:48:11.843Z,29.82
2022-08-05T06:48:54.813Z,29.84
2022-08-05T06:49:21.414Z,29.79
2022-08-05T06:50:20.829Z,29.84
2022-08-05T06:51:23.779Z,29.84
2022-08-05T06:52:36.887Z,29.87
2022-08-05T06:53:27.595Z,29.82
2022-08-05T06:54:21.497Z,29.88
2022-08-05T06:55:20.688Z,29.85
2022-08-05T06:56:26.403Z,29.87
2022-08-05T06:58:03.523Z,29.88
2022-08-05T06:58:29.617Z,29.88
2022-08-05T06:59:22.404Z,29.87
2022-08-05T07:00:24.505Z,29.87
2022-08-05T07:01:21.780Z,29.82
2022-08-05T07:02:22.856Z,29.79
2022-08-05T07:03:22.059Z,29.72
2022-08-05T07:04:23.240Z,29.71
2022-08-05T07:05:27.621Z,29.62
2022-08-05T07:06:23.580Z,29.54
2022-08-05T07:07:24.091Z,29.49
2022-08-05T07:08:25.172Z,29.42
2022-08-05T07:09:24.856Z,29.37
2022-08-05T07:10:23.287Z,29.30
2022-08-05T07:11:25.251Z,29.20
2022-08-05T07:12:23.669Z,29.10
2022-08-05T07:13:56.835Z,29.00
2022-08-05T07:14:29.243Z,28.91
2022-08-05T07:15:34.427Z,28.82
2022-08-05T07:17:55.903Z,28.76
2022-08-05T07:18:09.118Z,28.66
2022-08-05T07:18:30.026Z,28.63
2022-08-05T07:20:05.012Z,28.56
2022-08-05T07:20:36.309Z,28.51
2022-08-05T07:21:26.181Z,28.45
2022-08-05T07:22:28.540Z,28.37
2022-08-05T07:23:26.532Z,28.32
2022-08-05T07:24:28.575Z,28.32
2022-08-05T07:25:55.916Z,28.28
2022-08-05T07:26:27.040Z,28.23
2022-08-05T07:27:27.554Z,28.25
2022-08-05T07:28:27.355Z,28.21
2022-08-05T07:30:27.478Z,28.18
2022-08-05T07:30:32.537Z,28.19
2022-08-05T07:31:54.081Z,28.16
2022-08-05T07:32:28.051Z,28.18
2022-08-05T07:33:36.890Z,28.19
2022-08-05T07:34:28.780Z,28.18
2022-08-05T07:35:55.995Z,28.16
2022-08-05T07:36:28.763Z,28.15
2022-08-05T07:37:29.054Z,28.16
2022-08-05T07:38:33.696Z,28.11
2022-08-05T07:40:26.115Z,28.11
2022-08-05T07:40:32.851Z,28.08
2022-08-05T07:42:07.927Z,28.10
2022-08-05T07:42:31.788Z,28.08
2022-08-05T07:43:28.996Z,28.06
2022-08-05T07:44:29.181Z,28.04
2022-08-05T07:45:31.200Z,28.01
2022-08-05T07:46:30.766Z,28.03
2022-08-05T07:47:39.675Z,28.00
2022-08-05T07:49:00.489Z,28.00
2022-08-05T07:49:31.069Z,27.99
2022-08-05T07:50:32.513Z,27.95
2022-08-05T07:51:36.855Z,27.99
2022-08-05T07:52:31.635Z,28.01
2022-08-05T07:53:36.868Z,28.01
2022-08-05T07:54:33.569Z,27.99
2022-08-05T07:55:53.602Z,28.00
2022-08-05T07:57:00.792Z,28.00
2022-08-05T07:57:58.931Z,27.94
2022-08-05T07:58:57.338Z,27.97
2022-08-05T07:59:40.084Z,27.97
2022-08-05T08:00:33.033Z,27.95
2022-08-05T08:01:32.253Z,27.94
2022-08-05T08:03:14.939Z,27.92
2022-08-05T08:03:44.416Z,27.88
2022-08-05T08:04:37.608Z,27.86
2022-08-05T08:05:32.926Z,27.81
2022-08-05T08:06:34.138Z,27.81
2022-08-05T08:07:39.726Z,27.82
2022-08-05T08:08:34.426Z,27.84
2022-08-05T08:09:33.594Z,27.85
2022-08-05T08:10:33.757Z,27.89
2022-08-05T08:11:47.445Z,27.91
2022-08-05T08:12:49.411Z,27.94
2022-08-05T08:13:49.335Z,28.00
2022-08-05T08:14:35.478Z,28.03
2022-08-05T08:16:33.331Z,28.07
2022-08-05T08:16:51.239Z,28.11
2022-08-05T08:17:36.011Z,28.18
2022-08-05T08:18:35.161Z,28.21
2022-08-05T08:20:22.670Z,28.23
2022-08-05T08:20:59.805Z,28.26
2022-08-05T08:21:36.715Z,28.30
2022-08-05T08:22:35.876Z,28.34
2022-08-05T08:24:01.408Z,28.38
2022-08-05T08:24:51.140Z,28.38
2022-08-05T08:26:00.672Z,28.42
2022-08-05T08:26:37.625Z,28.40
2022-08-05T08:27:44.975Z,28.44
2022-08-05T08:28:59.176Z,28.45
2022-08-05T08:30:04.209Z,28.45
2022-08-05T08:30:47.983Z,28.46
2022-08-05T08:31:38.505Z,28.46
2022-08-05T08:32:41.784Z,28.45
2022-08-05T08:33:38.547Z,28.49
2022-08-05T08:34:38.007Z,28.51
2022-08-05T08:35:40.979Z,28.53
2022-08-05T08:36:49.925Z,28.57
2022-08-05T08:37:39.558Z,28.54
2022-08-05T08:38:39.710Z,28.57
2022-08-05T08:39:38.927Z,28.60
2022-08-05T08:40:40.059Z,28.57
2022-08-05T08:41:52.431Z,28.60
2022-08-05T08:42:46.755Z,28.61
2022-08-05T08:45:22.938Z,28.63
2022-08-05T08:45:25.060Z,28.61
2022-08-05T08:45:40.934Z,28.63
2022-08-05T08:46:40.112Z,28.63
2022-08-05T08:48:06.656Z,28.63
2022-08-05T08:49:07.936Z,28.64
2022-08-05T08:50:23.042Z,28.67
2022-08-05T08:51:03.978Z,28.67
2022-08-05T08:52:04.085Z,28.73
2022-08-05T08:52:42.169Z,28.72
2022-08-05T08:53:45.027Z,28.73
2022-08-05T08:54:42.296Z,28.79
2022-08-05T08:56:03.818Z,28.78
2022-08-05T08:56:47.787Z,28.79
2022-08-05T08:57:57.841Z,28.79
2022-08-05T08:58:47.645Z,28.81
2022-08-05T08:59:47.267Z,28.81
2022-08-05T09:00:43.656Z,28.82
2022-08-05T09:01:42.788Z,28.88
2022-08-05T09:02:42.891Z,28.86
2022-08-05T09:03:44.884Z,28.86
2022-08-05T09:04:58.137Z,28.88
2022-08-05T09:06:08.789Z,28.90
2022-08-05T09:06:44.580Z,28.90
2022-08-05T09:07:57.359Z,28.90
2022-08-05T09:08:44.936Z,28.94
2022-08-05T09:09:44.101Z,28.93
2022-08-05T09:10:46.911Z,28.98
2022-08-05T09:11:52.141Z,29.00
2022-08-05T09:12:45.581Z,29.01
2022-08-05T09:14:10.152Z,29.01
2022-08-05T09:14:57.503Z,29.05
2022-08-05T09:15:46.083Z,29.05
2022-08-05T09:16:48.784Z,29.10
2022-08-05T09:17:49.804Z,29.10
2022-08-05T09:18:45.597Z,29.12
2022-08-05T09:20:02.004Z,29.05
2022-08-05T09:20:46.917Z,29.05
2022-08-05T09:22:23.426Z,29.03
2022-08-05T09:22:51.818Z,29.00
2022-08-05T09:23:46.487Z,29.01
2022-08-05T09:24:46.638Z,29.00
2022-08-05T09:26:03.274Z,29.03
2022-08-05T09:26:47.986Z,29.01
2022-08-05T09:28:04.191Z,29.04
2022-08-05T09:28:48.336Z,29.05
2022-08-05T09:29:48.094Z,29.03
2022-08-05T09:30:47.692Z,29.04
2022-08-05T09:32:40.352Z,29.03
2022-08-05T09:32:49.010Z,29.01
2022-08-05T09:33:48.191Z,29.03
2022-08-05T09:34:48.388Z,29.00
2022-08-05T09:35:48.542Z,28.98
2022-08-05T09:36:56.447Z,28.97
2022-08-05T09:38:12.289Z,28.96
2022-08-05T09:38:50.042Z,28.91
2022-08-05T09:39:52.197Z,28.94
2022-08-05T09:40:52.473Z,28.93
2022-08-05T09:41:53.944Z,28.93
2022-08-05T09:42:50.684Z,28.88
2022-08-05T09:43:49.883Z,28.86
2022-08-05T09:44:50.698Z,28.85
2022-08-05T09:46:07.706Z,28.86
2022-08-05T09:46:53.573Z,28.88
2022-08-05T09:47:55.942Z,28.86
2022-08-05T09:49:07.024Z,28.86
2022-08-05T09:50:02.052Z,28.83
2022-08-05T09:50:52.157Z,28.86
2022-08-05T09:51:51.316Z,28.86
2022-08-05T09:52:52.931Z,28.85
2022-08-05T09:53:54.045Z,28.85
2022-08-05T09:54:51.822Z,28.86
2022-08-05T09:55:56.125Z,28.86
2022-08-05T09:56:53.192Z,28.88
2022-08-05T09:57:54.697Z,28.90
2022-08-05T09:58:53.532Z,28.93
2022-08-05T09:59:52.696Z,28.94
2022-08-05T10:00:52.880Z,28.94
2022-08-05T10:01:55.517Z,28.97
2022-08-05T10:02:54.270Z,29.00
2022-08-05T10:03:58.528Z,29.01
2022-08-05T10:04:54.554Z,29.01
2022-08-05T10:05:53.737Z,29.04
2022-08-05T10:06:55.205Z,29.04
2022-08-05T10:08:35.538Z,29.04
2022-08-05T10:08:55.579Z,29.07
2022-08-05T10:10:14.499Z,29.10
2022-08-05T10:10:55.577Z,29.10
2022-08-05T10:11:54.762Z,29.10
2022-08-05T10:12:54.916Z,29.13
2022-08-05T10:13:55.105Z,29.15
2022-08-05T10:14:55.266Z,29.12
2022-08-05T10:15:55.473Z,29.12
2022-08-05T10:16:55.615Z,29.12
2022-08-05T10:17:57.599Z,29.13
2022-08-05T10:18:55.983Z,29.15
2022-08-05T10:20:03.767Z,29.15
2022-08-05T10:20:57.300Z,29.12
2022-08-05T10:21:56.480Z,29.12
2022-08-05T10:22:56.665Z,29.13
2022-08-05T10:24:00.529Z,29.12
2022-08-05T10:24:57.011Z,29.13
2022-08-05T10:25:57.200Z,29.18
2022-08-05T10:27:00.555Z,29.15
2022-08-05T10:28:13.775Z,29.20
2022-08-05T10:28:58.832Z,29.22
2022-08-05T10:30:41.046Z,29.22
2022-08-05T10:32:52.922Z,29.28
2022-08-05T10:32:53.603Z,29.25
2022-08-05T10:33:01.323Z,29.30
2022-08-05T10:33:58.704Z,29.35
2022-08-05T10:35:01.105Z,29.37
2022-08-05T10:35:59.870Z,29.42
2022-08-05T10:36:59.166Z,29.46
2022-08-05T10:37:59.337Z,29.54
2022-08-05T10:38:59.556Z,29.59
2022-08-05T10:40:16.765Z,29.67
2022-08-05T10:41:00.932Z,29.68
2022-08-05T10:42:01.259Z,29.74
2022-08-05T10:43:00.186Z,29.76
2022-08-05T10:44:00.396Z,29.82
2022-08-05T10:45:00.558Z,29.85
2022-08-05T10:46:06.756Z,29.85
2022-08-05T10:47:01.948Z,29.88
2022-08-05T10:48:31.305Z,29.91
2022-08-05T10:49:05.072Z,29.94
2022-08-05T10:50:32.590Z,29.97
2022-08-05T10:51:03.409Z,30.02
2022-08-05T10:52:02.716Z,30.05
2022-08-05T10:53:01.957Z,30.12
2022-08-05T10:54:23.013Z,30.14
2022-08-05T10:55:03.310Z,30.24
2022-08-05T10:56:04.718Z,30.31
2022-08-05T10:57:03.652Z,30.43
2022-08-05T10:58:02.842Z,30.54
2022-08-05T10:59:07.318Z,30.59
2022-08-05T11:00:09.061Z,30.66
2022-08-05T11:01:04.375Z,30.76
2022-08-05T11:02:04.975Z,30.83
2022-08-05T11:03:25.402Z,30.93
2022-08-05T11:04:04.949Z,31.02
2022-08-05T11:05:04.106Z,31.11
2022-08-05T11:06:04.285Z,31.21
2022-08-05T11:07:04.469Z,31.33
2022-08-05T11:08:17.207Z,31.45
2022-08-05T11:09:05.857Z,31.56
2022-08-05T11:10:10.266Z,31.66
2022-08-05T11:11:14.631Z,31.77
2022-08-05T11:12:06.358Z,31.82
2022-08-05T11:13:05.518Z,31.89
2022-08-05T11:14:05.690Z,31.94
2022-08-05T11:15:19.253Z,31.90
2022-08-05T11:16:07.053Z,31.87
2022-08-05T11:17:59.135Z,31.78
2022-08-05T11:18:11.680Z,31.77
2022-08-05T11:20:09.938Z,31.77
2022-08-05T11:20:11.183Z,31.74
2022-08-05T11:21:12.036Z,31.78
2022-08-05T11:22:07.143Z,31.78
2022-08-05T11:23:10.455Z,31.81
2022-08-05T11:24:29.726Z,31.81
2022-08-05T11:26:03.258Z,31.87
2022-08-05T11:26:10.071Z,31.90
2022-08-05T11:27:08.035Z,31.94
2022-08-05T11:28:08.185Z,31.97
2022-08-05T11:29:13.816Z,31.99
2022-08-05T11:30:10.562Z,32.01
2022-08-05T11:31:08.696Z,32.05
2022-08-05T11:32:08.893Z,32.05
2022-08-05T11:33:13.660Z,32.14
2022-08-05T11:34:09.271Z,32.19
2022-08-05T11:35:10.408Z,32.21
2022-08-05T11:36:10.576Z,32.33
2022-08-05T11:38:30.792Z,32.48
2022-08-05T11:38:37.004Z,32.38
2022-08-05T11:39:11.137Z,32.61
2022-08-05T11:40:10.252Z,32.80
2022-08-05T11:41:34.679Z,32.95
2022-08-05T11:42:11.582Z,33.10
2022-08-05T11:43:11.771Z,33.34
2022-08-05T11:44:10.931Z,33.71
2022-08-05T11:45:14.237Z,34.13
2022-08-05T11:46:14.924Z,34.35
2022-08-05T11:47:48.776Z,34.34
2022-08-05T11:48:12.634Z,34.31
2022-08-05T11:49:11.794Z,34.35
2022-08-05T11:50:14.286Z,34.34
2022-08-05T11:51:12.148Z,34.37
2022-08-05T11:52:13.317Z,34.37
2022-08-05T11:53:12.495Z,34.40
2022-08-05T11:54:13.905Z,34.40
2022-08-05T11:55:12.847Z,34.40
2022-08-05T11:56:13.028Z,34.37
2022-08-05T11:57:25.489Z,34.37
2022-08-05T11:58:14.440Z,34.35
2022-08-05T11:59:14.004Z,34.30
2022-08-05T12:00:13.709Z,34.25
2022-08-05T12:01:13.889Z,34.22
2022-08-05T12:02:24.475Z,34.21
2022-08-05T12:03:15.274Z,34.19
2022-08-05T12:04:14.439Z,34.16
2022-08-05T12:05:18.065Z,34.15
2022-08-05T12:06:14.742Z,34.05
2022-08-05T12:07:14.907Z,33.99
2022-08-05T12:08:17.913Z,33.96
2022-08-05T12:09:19.963Z,33.99
2022-08-05T12:10:16.408Z,34.03
2022-08-05T12:11:20.284Z,34.03
2022-08-05T12:12:16.995Z,34.06
2022-08-05T12:13:18.876Z,34.15
2022-08-05T12:14:17.093Z,34.19
2022-08-05T12:15:17.125Z,34.23
2022-08-05T12:16:16.419Z,34.27
2022-08-05T12:18:03.040Z,34.30
2022-08-05T12:18:17.755Z,34.31
2022-08-05T12:20:17.088Z,34.31
2022-08-05T12:20:30.680Z,34.34
2022-08-05T12:21:18.255Z,34.35
2022-08-05T12:22:17.964Z,34.38
2022-08-05T12:23:17.585Z,34.41
2022-08-05T12:24:17.785Z,34.46
2022-08-05T12:25:17.920Z,34.48
2022-08-05T12:26:18.082Z,34.49
2022-08-05T12:27:32.549Z,34.52
2022-08-05T12:28:19.456Z,34.55
2022-08-05T12:29:22.570Z,34.56
2022-08-05T12:30:18.763Z,34.60
2022-08-05T12:31:23.347Z,34.65
2022-08-05T12:32:20.123Z,34.74
2022-08-05T12:33:27.695Z,34.77
2022-08-05T12:34:21.209Z,34.82
2022-08-05T12:35:21.705Z,34.84
2022-08-05T12:36:19.841Z,34.90
2022-08-05T12:37:30.237Z,34.93
2022-08-05T12:38:22.315Z,34.93
2022-08-05T12:39:21.431Z,35.01
2022-08-05T12:40:26.567Z,35.04
2022-08-05T12:41:21.645Z,35.08
2022-08-05T12:42:21.845Z,35.11
2022-08-05T12:43:21.348Z,35.16
2022-08-05T12:44:32.556Z,35.20
2022-08-05T12:45:22.410Z,35.24
2022-08-05T12:46:28.045Z,35.30
2022-08-05T12:47:23.008Z,35.34
2022-08-05T12:48:27.615Z,35.38
2022-08-05T12:49:25.613Z,35.42
2022-08-05T12:50:22.309Z,35.43
2022-08-05T12:52:13.049Z,35.46
2022-08-05T12:52:28.334Z,35.49
2022-08-05T12:53:23.791Z,35.54
2022-08-05T12:54:26.519Z,35.59
2022-08-05T12:55:25.093Z,35.63